Time;durP1;ratioP1;P1;durP2;ratioP2;P2;SDS_P1;SDS_P2;PMS_P1;PMS_P2;Temp;Humidity;BMP_temperature;BMP_pressure;BME280_temperature;BME280_humidity;BME280_pressure;Samples;Min_cycle;Max_cycle;Signal;HPM_P1;HPM_P2
2022/10/09 00:01:27;;;;;;;0.70;0.50;;;17.10;99.90;;;;;;5092773;28;20175;-70
2022/10/09 00:03:58;;;;;;;1.20;0.50;;;18.10;99.90;;;;;;5093101;28;20175;-69
2022/10/09 00:06:31;;;;;;;0.33;0.30;;;18.60;99.90;;;;;;5092798;28;20208;-69
2022/10/09 00:09:03;;;;;;;2.00;0.37;;;18.50;99.90;;;;;;5092882;28;20187;-70
2022/10/09 00:11:32;;;;;;;0.37;0.37;;;18.50;99.90;;;;;;5092820;28;20578;-71
2022/10/09 00:14:01;;;;;;;0.70;0.40;;;18.60;99.90;;;;;;5092633;28;20248;-71
2022/10/09 00:16:29;;;;;;;0.50;0.40;;;18.50;99.90;;;;;;5080423;28;20176;-71
2022/10/09 00:18:57;;;;;;;0.30;0.30;;;18.00;99.90;;;;;;5079035;28;20232;-71
2022/10/09 00:21:28;;;;;;;1.07;0.60;;;17.80;99.90;;;;;;5092492;28;20233;-70
2022/10/09 00:23:58;;;;;;;0.50;0.50;;;18.20;99.90;;;;;;5096715;28;20258;-71
2022/10/09 00:26:27;;;;;;;0.40;0.40;;;18.60;99.90;;;;;;5087253;28;20208;-71
2022/10/09 00:28:55;;;;;;;0.80;0.47;;;18.10;99.90;;;;;;5096518;28;20179;-70
2022/10/09 00:31:24;;;;;;;1.60;0.40;;;17.60;99.90;;;;;;5096593;28;20212;-70
2022/10/09 00:33:51;;;;;;;0.60;0.50;;;17.50;99.90;;;;;;5096737;28;20649;-72
2022/10/09 00:36:22;;;;;;;0.50;0.50;;;17.40;99.90;;;;;;5089034;28;20641;-70
2022/10/09 00:38:53;;;;;;;0.40;0.40;;;17.00;99.90;;;;;;5075988;28;20258;-71
2022/10/09 00:41:30;;;;;;;0.77;0.50;;;16.70;99.90;;;;;;5075822;28;20176;-70
2022/10/09 00:44:00;;;;;;;1.60;0.50;;;17.10;99.90;;;;;;5076090;28;20179;-71
2022/10/09 00:46:39;;;;;;;1.67;0.40;;;17.40;99.90;;;;;;5076000;28;20202;-71
2022/10/09 00:49:09;;;;;;;0.57;0.40;;;17.20;99.90;;;;;;5075762;28;20263;-71
2022/10/09 00:51:38;;;;;;;0.40;0.40;;;17.10;99.90;;;;;;5075909;28;20176;-70
2022/10/09 00:54:09;;;;;;;0.30;0.30;;;17.30;99.90;;;;;;5075725;28;20278;-70
2022/10/09 00:56:37;;;;;;;0.40;0.30;;;17.20;99.90;;;;;;5075662;28;20634;-71
2022/10/09 00:59:05;;;;;;;0.40;0.40;;;17.30;99.90;;;;;;5075466;28;20277;-71
2022/10/09 01:01:33;;;;;;;0.30;0.30;;;17.40;99.90;;;;;;5075353;28;20190;-70
2022/10/09 01:04:01;;;;;;;0.83;0.50;;;17.60;99.90;;;;;;5075568;28;20176;-70
2022/10/09 01:07:05;;;;;;;0.47;0.47;;;17.80;99.90;;;;;;5075445;28;20218;-71
2022/10/09 01:09:46;;;;;;;3.80;0.40;;;18.30;99.90;;;;;;5075847;28;20174;-71
2022/10/09 01:12:38;;;;;;;0.63;0.30;;;18.50;99.90;;;;;;5075285;28;20180;-71
2022/10/09 01:15:29;;;;;;;0.30;0.30;;;18.50;99.90;;;;;;5088396;28;20608;-71
2022/10/09 01:18:21;;;;;;;0.40;0.40;;;18.60;99.90;;;;;;5082420;28;20180;-70
2022/10/09 01:20:52;;;;;;;0.40;0.40;;;18.00;99.90;;;;;;5077865;28;20628;-71
2022/10/09 01:24:00;;;;;;;0.63;0.50;;;17.60;99.90;;;;;;5074882;28;20174;-70
2022/10/09 01:26:49;;;;;;;0.30;0.30;;;17.80;99.90;;;;;;5049908;28;20216;-70
2022/10/09 01:29:20;;;;;;;0.33;0.33;;;17.70;99.90;;;;;;5085716;28;20194;-71
2022/10/09 01:32:00;;;;;;;0.50;0.50;;;17.50;99.90;;;;;;5075175;28;20263;-73
2022/10/09 01:34:28;;;;;;;0.30;0.30;;;17.60;99.90;;;;;;5056086;28;20633;-71
2022/10/09 01:36:57;;;;;;;0.30;0.30;;;17.80;99.90;;;;;;5088101;28;20538;-71
2022/10/09 01:39:26;;;;;;;0.40;0.40;;;18.00;99.90;;;;;;5071437;28;20172;-71
2022/10/09 01:41:55;;;;;;;0.40;0.40;;;18.30;99.90;;;;;;5085737;28;20183;-75
2022/10/09 01:44:32;;;;;;;0.40;0.40;;;18.50;99.90;;;;;;5083485;28;20183;-71
2022/10/09 01:47:00;;;;;;;0.40;0.40;;;18.30;99.90;;;;;;5085758;28;20749;-77
2022/10/09 01:49:46;;;;;;;0.77;0.40;;;18.20;99.90;;;;;;5083029;28;20175;-71
2022/10/09 01:52:53;;;;;;;1.37;0.87;;;18.20;99.90;;;;;;5093431;28;20648;-71
2022/10/09 01:55:42;;;;;;;0.30;0.30;;;18.20;99.90;;;;;;5071955;28;20187;-71
2022/10/09 01:58:57;;;;;;;1.03;0.53;;;18.10;99.90;;;;;;5055064;28;20180;-70
2022/10/09 02:01:28;;;;;;;0.60;0.30;;;17.80;99.90;;;;;;5033036;28;20196;-71
2022/10/09 02:03:59;;;;;;;0.40;0.40;;;17.90;99.90;;;;;;5050553;28;20192;-71
2022/10/09 02:06:30;;;;;;;0.70;0.70;;;17.90;99.90;;;;;;5052763;28;20208;-70
2022/10/09 02:08:58;;;;;;;1.37;0.70;;;18.00;99.90;;;;;;5052616;28;20180;-70
2022/10/09 02:11:29;;;;;;;0.50;0.50;;;18.30;99.90;;;;;;5052069;28;20219;-75
2022/10/09 02:13:58;;;;;;;0.30;0.30;;;18.50;99.90;;;;;;5044483;28;20198;-70
2022/10/09 02:16:31;;;;;;;0.60;0.40;;;18.50;99.90;;;;;;5041318;28;20325;-70
2022/10/09 02:19:18;;;;;;;0.40;0.37;;;18.60;99.90;;;;;;5039141;28;20839;-76
2022/10/09 02:22:17;;;;;;;0.50;0.40;;;18.80;99.90;;;;;;5033713;28;20196;-69
2022/10/09 02:24:45;;;;;;;0.33;0.33;;;18.80;99.90;;;;;;5030786;28;20205;-76
2022/10/09 02:27:18;;;;;;;1.03;0.50;;;18.90;99.90;;;;;;5045367;28;20639;-70
2022/10/09 02:29:47;;;;;;;0.67;0.40;;;18.70;99.90;;;;;;5033945;28;20172;-70
2022/10/09 02:32:15;;;;;;;0.40;0.40;;;18.80;99.90;;;;;;5041190;28;20189;-72
2022/10/09 02:34:43;;;;;;;0.80;0.40;;;18.70;99.90;;;;;;5040018;28;20209;-72
2022/10/09 02:37:11;;;;;;;0.30;0.30;;;19.30;99.90;;;;;;5040296;28;20264;-72
2022/10/09 02:39:40;;;;;;;0.60;0.37;;;19.90;99.90;;;;;;5052137;28;20184;-70
2022/10/09 02:42:08;;;;;;;0.30;0.30;;;19.50;99.90;;;;;;5051282;28;20188;-70
2022/10/09 02:44:36;;;;;;;0.40;0.40;;;19.70;99.90;;;;;;5048789;28;20271;-74
2022/10/09 02:47:04;;;;;;;0.40;0.33;;;19.70;99.90;;;;;;5050545;28;20220;-71
2022/10/09 02:49:32;;;;;;;1.13;0.50;;;19.80;99.90;;;;;;5051352;28;20179;-76
2022/10/09 02:51:59;;;;;;;0.30;0.30;;;19.90;99.90;;;;;;5047242;28;20643;-73
2022/10/09 02:54:27;;;;;;;0.33;0.33;;;20.00;99.90;;;;;;5042097;28;20259;-68
2022/10/09 02:56:55;;;;;;;0.47;0.37;;;19.60;99.90;;;;;;5051936;28;20188;-72
2022/10/09 02:59:23;;;;;;;0.63;0.40;;;19.50;99.90;;;;;;5064030;28;20223;-72
2022/10/09 03:01:50;;;;;;;0.30;0.30;;;19.00;99.90;;;;;;5091232;28;20187;-69
2022/10/09 03:04:18;;;;;;;0.30;0.30;;;18.90;99.90;;;;;;5060430;28;20592;-70
2022/10/09 03:06:46;;;;;;;0.40;0.40;;;18.60;99.90;;;;;;5076941;28;20254;-68
2022/10/09 03:09:14;;;;;;;0.47;0.47;;;18.60;99.90;;;;;;5086086;28;20194;-70
2022/10/09 03:11:41;;;;;;;0.70;0.40;;;18.90;99.90;;;;;;5089499;28;20330;-70
2022/10/09 03:14:09;;;;;;;0.30;0.30;;;19.30;99.90;;;;;;5088090;28;20187;-69
2022/10/09 03:16:37;;;;;;;0.40;0.40;;;19.40;99.90;;;;;;5082355;28;20179;-70
2022/10/09 03:19:05;;;;;;;0.40;0.40;;;19.30;99.90;;;;;;5088535;28;20183;-73
2022/10/09 03:21:33;;;;;;;0.77;0.40;;;19.20;99.90;;;;;;5078444;28;20175;-69
2022/10/09 03:24:16;;;;;;;0.40;0.40;;;19.10;99.90;;;;;;5073337;28;20625;-70
2022/10/09 03:26:44;;;;;;;0.30;0.30;;;19.00;99.90;;;;;;5071200;28;20211;-72
2022/10/09 03:29:12;;;;;;;0.40;0.40;;;19.00;99.90;;;;;;5078323;28;20199;-71
2022/10/09 03:31:39;;;;;;;0.83;0.50;;;19.50;99.90;;;;;;5090427;28;20617;-70
2022/10/09 03:34:07;;;;;;;0.70;0.50;;;19.40;99.90;;;;;;5089461;28;20191;-71
2022/10/09 03:36:35;;;;;;;0.70;0.47;;;19.20;99.90;;;;;;5073693;28;20183;-71
2022/10/09 03:39:03;;;;;;;0.53;0.40;;;18.90;99.90;;;;;;5072696;28;20696;-71
2022/10/09 03:41:30;;;;;;;0.40;0.40;;;18.70;99.90;;;;;;5086272;28;20186;-71
2022/10/09 03:43:58;;;;;;;0.77;0.50;;;18.90;99.90;;;;;;5089580;28;20187;-72
2022/10/09 03:46:26;;;;;;;0.40;0.33;;;19.00;99.90;;;;;;5086252;28;20211;-72
2022/10/09 03:48:54;;;;;;;0.70;0.50;;;19.30;99.90;;;;;;5089882;28;20213;-72
2022/10/09 03:51:22;;;;;;;0.50;0.50;;;19.50;99.90;;;;;;5082491;28;20258;-72
2022/10/09 03:53:50;;;;;;;0.37;0.33;;;19.50;99.90;;;;;;5087738;28;20185;-72
2022/10/09 03:56:18;;;;;;;0.30;0.30;;;19.50;99.90;;;;;;5091311;28;20182;-70
2022/10/09 03:58:45;;;;;;;0.47;0.40;;;19.20;99.90;;;;;;5095036;28;20186;-71
2022/10/09 04:01:13;;;;;;;0.53;0.40;;;19.20;99.90;;;;;;5095325;28;20183;-71
2022/10/09 04:03:41;;;;;;;1.00;0.40;;;19.10;99.90;;;;;;5095447;28;20568;-70
2022/10/09 04:06:09;;;;;;;0.83;0.47;;;19.00;99.90;;;;;;5095266;28;20211;-71
2022/10/09 04:08:36;;;;;;;0.93;0.53;;;18.70;99.90;;;;;;5095300;28;20237;-72
2022/10/09 04:11:04;;;;;;;0.60;0.50;;;18.50;99.90;;;;;;5094768;28;20713;-71
2022/10/09 04:13:32;;;;;;;0.40;0.40;;;18.40;99.90;;;;;;5095336;28;20180;-70
2022/10/09 04:16:00;;;;;;;0.70;0.50;;;18.40;99.90;;;;;;5076981;28;20229;-71
2022/10/09 04:18:28;;;;;;;0.57;0.57;;;18.50;99.90;;;;;;5095305;28;20705;-71
2022/10/09 04:20:56;;;;;;;0.40;0.40;;;18.60;99.90;;;;;;5076709;28;20686;-71
2022/10/09 04:23:26;;;;;;;1.93;0.60;;;18.90;99.90;;;;;;5095225;28;20233;-72
2022/10/09 04:25:59;;;;;;;0.57;0.40;;;19.10;99.90;;;;;;5088304;28;20265;-71
2022/10/09 04:28:31;;;;;;;0.40;0.40;;;19.20;99.90;;;;;;5075727;28;20219;-71
2022/10/09 04:30:59;;;;;;;1.27;0.40;;;19.10;99.90;;;;;;5073100;28;20986;-72
2022/10/09 04:33:28;;;;;;;1.67;0.60;;;19.10;99.90;;;;;;5093999;28;20248;-72
2022/10/09 04:35:57;;;;;;;0.47;0.40;;;19.10;99.90;;;;;;5074915;28;20666;-71
2022/10/09 04:38:25;;;;;;;0.40;0.40;;;19.20;99.90;;;;;;5075896;28;20171;-70
2022/10/09 04:41:02;;;;;;;0.63;0.40;;;19.60;99.90;;;;;;5093683;28;20183;-72
2022/10/09 04:43:30;;;;;;;0.40;0.40;;;20.00;99.90;;;;;;5092496;28;20584;-72
2022/10/09 04:45:58;;;;;;;0.33;0.30;;;20.70;99.90;;;;;;5089547;28;20202;-73
2022/10/09 04:48:26;;;;;;;5.50;0.50;;;21.30;99.90;;;;;;5072921;28;20198;-72
2022/10/09 04:50:54;;;;;;;1.80;0.40;;;21.10;99.90;;;;;;5076946;28;20172;-72
2022/10/09 04:53:22;;;;;;;0.60;0.40;;;20.50;99.90;;;;;;5084517;28;20183;-72
2022/10/09 04:55:49;;;;;;;0.30;0.30;;;20.20;99.90;;;;;;5085297;28;20211;-72
2022/10/09 04:58:17;;;;;;;1.03;0.40;;;20.00;99.90;;;;;;5092515;28;20183;-71
2022/10/09 05:00:46;;;;;;;0.70;0.37;;;19.70;99.90;;;;;;5094144;28;20272;-71
2022/10/09 05:03:14;;;;;;;0.30;0.30;;;19.50;99.90;;;;;;5094333;28;20550;-70
2022/10/09 05:05:42;;;;;;;0.53;0.30;;;19.30;99.90;;;;;;5060109;28;20221;-70
2022/10/09 05:08:10;;;;;;;0.40;0.30;;;19.10;99.90;;;;;;5087618;28;20226;-70
2022/10/09 05:10:38;;;;;;;0.80;0.80;;;19.00;99.90;;;;;;5083638;28;20612;-70
2022/10/09 05:13:06;;;;;;;0.77;0.50;;;18.80;99.90;;;;;;5073765;28;20208;-73
2022/10/09 05:15:36;;;;;;;1.33;0.60;;;18.60;99.90;;;;;;5071835;28;20270;-73
2022/10/09 05:18:04;;;;;;;0.60;0.60;;;18.50;99.90;;;;;;5076785;28;20267;-72
2022/10/09 05:20:32;;;;;;;0.40;0.40;;;18.50;99.90;;;;;;5081992;28;20171;-71
2022/10/09 05:23:00;;;;;;;0.40;0.40;;;18.40;99.90;;;;;;5094074;28;20202;-72
2022/10/09 05:25:28;;;;;;;0.80;0.70;;;18.50;99.90;;;;;;5079002;28;20183;-71
2022/10/09 05:27:55;;;;;;;0.40;0.40;;;18.70;99.90;;;;;;5073596;28;20294;-70
2022/10/09 05:30:23;;;;;;;1.93;0.70;;;19.10;99.90;;;;;;5073568;28;20180;-70
2022/10/09 05:32:51;;;;;;;2.30;1.80;;;19.70;99.90;;;;;;5073539;28;20182;-71
2022/10/09 05:35:19;;;;;;;2.57;1.00;;;19.60;99.90;;;;;;5074541;28;20237;-71
2022/10/09 05:37:46;;;;;;;2.20;0.93;;;19.40;99.90;;;;;;5073519;28;20534;-70
2022/10/09 05:40:14;;;;;;;1.60;0.70;;;19.30;99.90;;;;;;5073225;28;20698;-70
2022/10/09 05:42:42;;;;;;;3.20;0.90;;;19.30;99.90;;;;;;5073437;28;20180;-71
2022/10/09 05:45:10;;;;;;;1.00;0.53;;;18.90;99.90;;;;;;5089408;28;20194;-70
2022/10/09 05:47:38;;;;;;;2.10;0.80;;;18.70;99.90;;;;;;5074278;28;20219;-71
2022/10/09 05:50:06;;;;;;;2.83;0.80;;;18.40;99.90;;;;;;5073124;28;20211;-71
2022/10/09 05:52:35;;;;;;;1.43;0.90;;;18.30;99.90;;;;;;5073133;28;20180;-71
2022/10/09 05:55:03;;;;;;;2.43;1.00;;;18.20;99.90;;;;;;5073052;28;20191;-71
2022/10/09 05:57:31;;;;;;;1.23;0.70;;;18.10;99.90;;;;;;5073205;28;20208;-70
2022/10/09 05:59:59;;;;;;;1.97;0.90;;;18.00;99.90;;;;;;5054722;28;20548;-71
2022/10/09 06:02:26;;;;;;;3.43;0.90;;;17.80;99.90;;;;;;5072995;28;20180;-71
2022/10/09 06:04:54;;;;;;;2.97;0.80;;;17.50;99.90;;;;;;5086583;28;20264;-71
2022/10/09 06:07:22;;;;;;;2.00;1.20;;;17.40;99.90;;;;;;5093125;28;20246;-71
2022/10/09 06:09:51;;;;;;;1.17;0.80;;;17.40;99.90;;;;;;5076024;28;20184;-71
2022/10/09 06:12:18;;;;;;;0.93;0.80;;;17.30;99.90;;;;;;5075089;28;20188;-72
2022/10/09 06:14:46;;;;;;;3.53;0.73;;;17.30;99.90;;;;;;5092958;28;20659;-71
2022/10/09 06:17:14;;;;;;;2.73;1.07;;;17.30;99.90;;;;;;5093105;28;20235;-71
2022/10/09 06:19:42;;;;;;;2.60;0.83;;;17.50;99.90;;;;;;5075422;28;20195;-71
2022/10/09 06:22:10;;;;;;;2.97;1.23;;;17.40;99.90;;;;;;5054686;28;20192;-70
2022/10/09 06:24:38;;;;;;;6.90;1.17;;;17.40;99.90;;;;;;5072478;28;20221;-71
2022/10/09 06:27:06;;;;;;;4.43;1.33;;;17.50;99.90;;;;;;5054516;28;20744;-71
2022/10/09 06:29:34;;;;;;;7.20;0.90;;;17.50;99.90;;;;;;5084979;28;20655;-71
2022/10/09 06:32:01;;;;;;;5.40;1.10;;;17.40;99.90;;;;;;5092662;28;20265;-69
2022/10/09 06:34:29;;;;;;;4.03;1.03;;;17.20;99.90;;;;;;5081191;28;20187;-70
2022/10/09 06:36:57;;;;;;;5.13;1.23;;;17.20;99.90;;;;;;5076252;28;20183;-72
2022/10/09 06:39:25;;;;;;;4.40;0.80;;;17.60;99.90;;;;;;5081179;28;20952;-71
2022/10/09 06:41:53;;;;;;;3.77;1.00;;;17.60;99.90;;;;;;5072216;28;20190;-71
2022/10/09 06:44:21;;;;;;;3.37;1.10;;;17.60;99.90;;;;;;5072227;28;20184;-70
2022/10/09 06:46:50;;;;;;;6.50;1.10;;;17.60;99.90;;;;;;5085226;28;20215;-70
2022/10/09 06:49:18;;;;;;;5.17;1.27;;;17.80;99.90;;;;;;5082314;28;20184;-70
2022/10/09 06:51:46;;;;;;;2.60;1.00;;;17.90;99.90;;;;;;5071996;28;20172;-70
2022/10/09 06:54:16;;;;;;;4.53;1.20;;;17.90;99.90;;;;;;5072065;28;20190;-70
2022/10/09 06:56:44;;;;;;;4.07;0.90;;;17.90;99.90;;;;;;5071842;28;20191;-70
2022/10/09 06:59:12;;;;;;;2.23;1.27;;;17.90;99.90;;;;;;5061953;28;20374;-73
2022/10/09 07:01:40;;;;;;;7.63;1.50;;;17.80;99.90;;;;;;5091947;28;20179;-71
2022/10/09 07:04:11;;;;;;;4.63;0.90;;;17.60;99.90;;;;;;5092154;28;20628;-71
2022/10/09 07:06:42;;;;;;;5.13;1.40;;;17.40;99.90;;;;;;5089971;28;20943;-71
2022/10/09 07:09:13;;;;;;;4.30;1.10;;;17.30;99.90;;;;;;5082936;28;20637;-72
2022/10/09 07:11:47;;;;;;;3.70;1.00;;;17.20;99.90;;;;;;5081860;28;20176;-72
2022/10/09 07:14:16;;;;;;;5.73;1.20;;;17.00;99.90;;;;;;5091102;28;20213;-72
2022/10/09 07:16:46;;;;;;;7.07;1.17;;;16.90;99.90;;;;;;5091840;28;20171;-71
2022/10/09 07:19:16;;;;;;;6.80;1.53;;;17.00;99.90;;;;;;5091122;28;20504;-71
2022/10/09 07:21:46;;;;;;;5.03;1.47;;;17.00;99.90;;;;;;5091786;28;20175;-71
2022/10/09 07:24:14;;;;;;;8.77;1.50;;;16.80;99.90;;;;;;5077758;28;20245;-71
2022/10/09 07:26:44;;;;;;;3.97;1.20;;;16.90;99.90;;;;;;5071498;28;20642;-71
2022/10/09 07:29:15;;;;;;;4.17;1.23;;;16.70;99.90;;;;;;5078568;28;20565;-72
2022/10/09 07:31:43;;;;;;;4.30;1.23;;;16.60;99.90;;;;;;5090400;28;20187;-72
2022/10/09 07:34:11;;;;;;;2.97;1.20;;;16.40;99.90;;;;;;5090787;28;20651;-71
2022/10/09 07:36:38;;;;;;;3.93;1.17;;;16.30;99.90;;;;;;5091586;28;20182;-71
2022/10/09 07:39:06;;;;;;;6.43;1.33;;;16.30;99.90;;;;;;5085463;28;20191;-71
2022/10/09 07:41:34;;;;;;;4.57;1.43;;;16.30;99.90;;;;;;5071197;28;20652;-71
2022/10/09 07:44:02;;;;;;;5.37;1.20;;;16.20;99.90;;;;;;5071477;28;20645;-71
2022/10/09 07:46:30;;;;;;;8.03;1.17;;;16.10;99.90;;;;;;5073802;28;20195;-71
2022/10/09 07:48:58;;;;;;;5.03;1.33;;;15.90;99.90;;;;;;5072740;28;20533;-71
2022/10/09 07:51:28;;;;;;;3.97;1.30;;;15.90;99.90;;;;;;5085494;28;20176;-71
2022/10/09 07:53:56;;;;;;;7.07;1.53;;;15.90;99.90;;;;;;5091470;28;20175;-71
2022/10/09 07:56:28;;;;;;;4.93;1.30;;;15.80;99.90;;;;;;5091572;28;20621;-71
2022/10/09 07:59:01;;;;;;;4.00;1.43;;;15.70;99.90;;;;;;5089418;28;20183;-70
2022/10/09 08:01:30;;;;;;;4.77;1.40;;;15.60;99.90;;;;;;5053288;28;20552;-71
2022/10/09 08:03:59;;;;;;;9.73;1.50;;;15.60;99.90;;;;;;5071338;28;20176;-71
2022/10/09 08:06:28;;;;;;;8.03;1.60;;;15.50;99.90;;;;;;5086337;28;20261;-71
2022/10/09 08:08:57;;;;;;;3.73;1.10;;;15.50;99.90;;;;;;5089706;28;20195;-71
2022/10/09 08:11:27;;;;;;;11.00;2.20;;;15.30;99.90;;;;;;5079833;28;20187;-71
2022/10/09 08:13:56;;;;;;;4.10;1.50;;;15.30;99.90;;;;;;5090716;28;20187;-71
2022/10/09 08:16:25;;;;;;;7.90;1.50;;;15.20;99.90;;;;;;5090675;28;20196;-72
2022/10/09 08:18:58;;;;;;;8.40;1.47;;;15.20;99.90;;;;;;5090244;28;20588;-71
2022/10/09 08:21:27;;;;;;;4.37;1.20;;;15.20;99.90;;;;;;5073204;28;20598;-72
2022/10/09 08:23:56;;;;;;;4.33;1.30;;;15.20;99.90;;;;;;5071005;28;20642;-71
2022/10/09 08:26:25;;;;;;;7.57;1.53;;;15.20;99.90;;;;;;5071001;28;20220;-72
2022/10/09 08:28:58;;;;;;;8.93;1.60;;;15.20;99.90;;;;;;5088262;28;20188;-71
2022/10/09 08:31:27;;;;;;;5.23;1.87;;;15.20;99.90;;;;;;5071059;28;20211;-71
2022/10/09 08:33:56;;;;;;;4.40;1.37;;;15.20;99.90;;;;;;5053503;28;20192;-71
2022/10/09 08:36:24;;;;;;;7.90;1.90;;;15.30;99.90;;;;;;5071015;28;20176;-71
2022/10/09 08:38:52;;;;;;;11.73;1.73;;;15.30;99.90;;;;;;5053139;28;20241;-71
2022/10/09 08:41:51;;;;;;;10.77;1.53;;;15.40;99.90;;;;;;5091119;28;20189;-71
2022/10/09 08:44:21;;;;;;;13.07;1.70;;;15.30;99.90;;;;;;5094085;28;20198;-71
2022/10/09 08:46:58;;;;;;;8.90;1.83;;;15.30;99.90;;;;;;5094591;28;20249;-72
2022/10/09 08:49:47;;;;;;;4.03;1.63;;;15.10;99.90;;;;;;5089684;28;20600;-72
2022/10/09 08:52:33;;;;;;;8.97;1.80;;;15.10;99.90;;;;;;5056450;28;20286;-72
2022/10/09 08:55:12;;;;;;;6.40;1.50;;;15.10;99.90;;;;;;5074370;28;20175;-71
2022/10/09 08:57:40;;;;;;;7.53;1.80;;;15.00;99.90;;;;;;5092859;28;20182;-72
2022/10/09 09:00:15;;;;;;;8.03;1.83;;;14.80;99.90;;;;;;5090454;28;20218;-71
2022/10/09 09:03:00;;;;;;;5.83;1.60;;;14.70;99.90;;;;;;5093469;28;20193;-70
2022/10/09 09:05:40;;;;;;;6.67;1.57;;;14.50;99.90;;;;;;5093394;28;20187;-72
2022/10/09 09:08:25;;;;;;;9.80;1.53;;;14.30;99.90;;;;;;5085317;28;20213;-74
2022/10/09 09:11:40;;;;;;;7.13;1.90;;;14.30;99.90;;;;;;5059506;28;20296;-73
2022/10/09 09:14:33;;;;;;;4.27;1.40;;;14.20;99.90;;;;;;5071115;28;20251;-71
2022/10/09 09:17:03;;;;;;;5.70;1.40;;;14.20;99.90;;;;;;5074968;28;20190;-71
2022/10/09 09:20:07;;;;;;;5.00;1.63;;;14.20;99.90;;;;;;5088926;28;20652;-72
2022/10/09 09:22:36;;;;;;;10.13;1.60;;;14.30;99.90;;;;;;5094245;28;20576;-71
2022/10/09 09:25:20;;;;;;;9.23;1.77;;;14.40;99.90;;;;;;5093838;28;20181;-72
2022/10/09 09:27:47;;;;;;;6.60;1.47;;;14.40;99.90;;;;;;5071679;28;20207;-72
2022/10/09 09:30:20;;;;;;;6.20;1.67;;;14.40;99.90;;;;;;5093933;28;20695;-72
2022/10/09 09:33:08;;;;;;;5.87;1.60;;;14.40;99.90;;;;;;5086230;28;20183;-71
2022/10/09 09:36:00;;;;;;;5.47;1.60;;;14.40;99.90;;;;;;5073700;28;20699;-71
2022/10/09 09:38:27;;;;;;;6.47;1.53;;;14.30;99.90;;;;;;5073546;28;20676;-71
2022/10/09 09:40:55;;;;;;;9.50;1.77;;;14.10;99.90;;;;;;5073186;28;20176;-71
2022/10/09 09:43:25;;;;;;;6.33;1.80;;;14.00;99.90;;;;;;5077743;28;20182;-72
2022/10/09 09:45:58;;;;;;;6.97;1.50;;;13.90;99.90;;;;;;5093665;28;20187;-72
2022/10/09 09:48:44;;;;;;;6.50;1.53;;;13.90;99.90;;;;;;5093615;28;20210;-72
2022/10/09 09:51:19;;;;;;;8.13;1.60;;;13.80;99.90;;;;;;5080465;28;20656;-71
2022/10/09 09:53:53;;;;;;;9.87;2.03;;;13.80;99.90;;;;;;5084353;28;20682;-71
2022/10/09 09:56:31;;;;;;;6.73;1.70;;;13.70;99.90;;;;;;5092808;28;20179;-71
2022/10/09 09:58:58;;;;;;;6.30;1.60;;;13.70;99.90;;;;;;5093267;28;20222;-70
2022/10/09 10:01:27;;;;;;;5.47;1.50;;;13.70;99.90;;;;;;5079453;28;20274;-71
2022/10/09 10:03:59;;;;;;;4.77;1.60;;;13.60;99.90;;;;;;5079933;28;20671;-71
2022/10/09 10:06:55;;;;;;;4.10;1.30;;;13.60;99.90;;;;;;5093242;28;20288;-71
2022/10/09 10:09:23;;;;;;;6.23;1.50;;;13.60;99.90;;;;;;5093221;28;20199;-70
2022/10/09 10:12:16;;;;;;;4.97;1.77;;;13.50;99.90;;;;;;5091187;28;20183;-72
2022/10/09 10:14:49;;;;;;;5.43;1.60;;;13.50;99.90;;;;;;5069438;28;20583;-70
2022/10/09 10:17:28;;;;;;;5.23;1.57;;;13.40;99.90;;;;;;5075140;28;20194;-72
2022/10/09 10:20:04;;;;;;;2.77;1.30;;;13.40;99.90;;;;;;5072435;28;20574;-72
2022/10/09 10:22:32;;;;;;;4.70;1.50;;;13.40;99.90;;;;;;5072711;28;20168;-72
2022/10/09 10:25:00;;;;;;;4.30;1.40;;;13.50;99.90;;;;;;5074260;28;20190;-71
2022/10/09 10:27:38;;;;;;;7.73;2.00;;;13.60;99.90;;;;;;5083727;28;20211;-71
2022/10/09 10:30:11;;;;;;;6.00;1.70;;;13.70;99.90;;;;;;5092781;28;20265;-71
2022/10/09 10:32:50;;;;;;;5.17;1.63;;;13.70;99.90;;;;;;5092903;28;20236;-71
2022/10/09 10:35:26;;;;;;;10.17;2.20;;;13.60;99.90;;;;;;5090945;28;20190;-72
2022/10/09 10:38:32;;;;;;;8.27;1.97;;;13.50;99.90;;;;;;5072518;28;20198;-70
2022/10/09 10:41:25;;;;;;;6.37;1.90;;;13.50;99.90;;;;;;4971451;28;20643;-71
2022/10/09 10:44:19;;;;;;;6.43;1.90;;;13.50;99.90;;;;;;5075539;28;20202;-71
2022/10/09 10:46:54;;;;;;;9.27;2.17;;;13.40;99.90;;;;;;5078736;28;20550;-70
2022/10/09 10:49:23;;;;;;;6.33;1.93;;;13.20;99.90;;;;;;5088662;28;20186;-71
2022/10/09 10:52:21;;;;;;;9.77;2.33;;;13.10;99.90;;;;;;5092428;28;20178;-72
2022/10/09 10:55:10;;;;;;;8.23;1.97;;;13.10;99.90;;;;;;5092430;28;20186;-71
2022/10/09 10:57:47;;;;;;;11.13;2.20;;;13.10;99.90;;;;;;5072202;28;20219;-73
2022/10/09 11:00:16;;;;;;;6.53;1.77;;;13.10;99.90;;;;;;5071851;28;20642;-72
2022/10/09 11:02:55;;;;;;;8.37;2.00;;;13.10;99.90;;;;;;5072176;28;20184;-71
2022/10/09 11:05:49;;;;;;;9.67;3.27;;;13.10;99.90;;;;;;5072033;28;20179;-71
2022/10/09 11:08:54;;;;;;;6.10;2.57;;;13.20;99.90;;;;;;5071351;28;20269;-72
2022/10/09 11:11:43;;;;;;;7.97;2.80;;;13.30;99.90;;;;;;5082692;28;20173;-72
2022/10/09 11:14:22;;;;;;;9.27;2.50;;;13.40;99.90;;;;;;5092027;28;20663;-71
2022/10/09 11:17:30;;;;;;;6.63;2.20;;;13.50;99.90;;;;;;5091212;28;20262;-70
2022/10/09 11:20:00;;;;;;;10.10;2.50;;;13.50;99.90;;;;;;5091985;28;20240;-72
2022/10/09 11:22:51;;;;;;;11.10;2.67;;;13.50;99.90;;;;;;5091766;28;20191;-71
2022/10/09 11:25:28;;;;;;;5.80;2.57;;;13.50;99.90;;;;;;5073852;28;20186;-71
2022/10/09 11:28:25;;;;;;;7.00;2.00;;;13.50;99.90;;;;;;5072354;28;20238;-71
2022/10/09 11:31:01;;;;;;;8.27;1.87;;;13.50;99.90;;;;;;5030455;28;20232;-71
2022/10/09 11:34:02;;;;;;;8.70;2.40;;;13.40;99.90;;;;;;5071757;28;20179;-72
2022/10/09 11:36:41;;;;;;;8.73;2.53;;;13.50;99.90;;;;;;5072760;28;20212;-71
2022/10/09 11:39:22;;;;;;;11.50;2.17;;;13.50;99.90;;;;;;5071472;28;20215;-70
2022/10/09 11:41:52;;;;;;;6.27;2.07;;;13.50;99.90;;;;;;5074405;28;20194;-72
2022/10/09 11:44:42;;;;;;;4.70;1.67;;;13.50;99.90;;;;;;5091867;28;20179;-72
2022/10/09 11:47:35;;;;;;;7.67;2.23;;;13.60;99.90;;;;;;5079084;28;20280;-71
2022/10/09 11:50:11;;;;;;;8.63;2.40;;;13.60;99.90;;;;;;5071451;28;20750;-72
2022/10/09 11:52:46;;;;;;;7.70;2.13;;;13.60;99.90;;;;;;5071574;28;20648;-72
2022/10/09 11:55:27;;;;;;;6.67;1.60;;;13.60;99.90;;;;;;5071359;28;20179;-72
2022/10/09 11:57:55;;;;;;;6.60;2.00;;;13.70;99.90;;;;;;5089633;28;20183;-72
2022/10/09 12:00:34;;;;;;;4.00;1.77;;;13.70;99.90;;;;;;5091321;28;20307;-72
2022/10/09 12:03:05;;;;;;;6.57;1.90;;;13.70;99.90;;;;;;5091518;28;20665;-71
2022/10/09 12:05:40;;;;;;;6.90;2.07;;;13.80;99.90;;;;;;5089555;28;20648;-71
2022/10/09 12:08:33;;;;;;;8.70;1.87;;;13.70;99.90;;;;;;5089938;28;20210;-71
2022/10/09 12:11:16;;;;;;;8.17;2.43;;;13.80;99.90;;;;;;5091480;28;20167;-71
2022/10/09 12:13:52;;;;;;;7.87;2.13;;;13.80;99.90;;;;;;5091609;28;20182;-73
2022/10/09 12:16:48;;;;;;;3.40;1.10;;;13.80;99.90;;;;;;5090604;28;20183;-71
2022/10/09 12:19:24;;;;;;;3.97;1.33;;;13.70;99.90;;;;;;5073370;28;20257;-71
2022/10/09 12:22:24;;;;;;;8.40;1.80;;;13.70;99.90;;;;;;5095400;28;20663;-71
2022/10/09 12:24:57;;;;;;;4.83;1.83;;;13.70;99.90;;;;;;5095149;28;20187;-71
2022/10/09 12:27:27;;;;;;;10.03;2.30;;;13.70;99.90;;;;;;5078302;28;20211;-71
2022/10/09 12:30:14;;;;;;;7.43;2.00;;;13.60;99.90;;;;;;5074763;28;20187;-71
2022/10/09 12:33:27;;;;;;;4.67;1.60;;;13.60;99.90;;;;;;5083261;28;20231;-71
2022/10/09 12:36:13;;;;;;;6.17;1.73;;;13.60;99.90;;;;;;5086438;28;20232;-71
2022/10/09 12:38:42;;;;;;;6.20;1.80;;;13.50;99.90;;;;;;5076747;28;20179;-71
2022/10/09 12:41:20;;;;;;;5.90;2.00;;;13.50;99.90;;;;;;5094816;28;20630;-71
2022/10/09 12:43:53;;;;;;;5.83;1.67;;;13.50;99.90;;;;;;5094921;28;20237;-71
2022/10/09 12:46:36;;;;;;;4.60;1.80;;;13.50;99.90;;;;;;5092948;28;20186;-71
2022/10/09 12:49:16;;;;;;;8.23;2.13;;;13.40;99.90;;;;;;5094415;28;20183;-71
2022/10/09 12:51:51;;;;;;;5.33;1.80;;;13.40;99.90;;;;;;5094796;28;20673;-71
2022/10/09 12:54:19;;;;;;;7.07;1.70;;;13.30;99.90;;;;;;5088898;28;20186;-71
2022/10/09 12:56:47;;;;;;;10.80;2.13;;;13.30;99.90;;;;;;5075554;28;20266;-71
2022/10/09 12:59:16;;;;;;;8.90;1.63;;;13.20;99.90;;;;;;5074253;28;20696;-70
2022/10/09 13:01:45;;;;;;;9.63;1.93;;;13.10;99.90;;;;;;5076063;28;20183;-71
2022/10/09 13:04:29;;;;;;;5.93;1.90;;;12.90;99.90;;;;;;5075619;28;20207;-71
2022/10/09 13:06:58;;;;;;;7.20;1.97;;;12.80;99.90;;;;;;5075595;28;20227;-72
2022/10/09 13:09:38;;;;;;;4.63;1.90;;;12.70;99.90;;;;;;5075550;28;20179;-72
2022/10/09 13:12:24;;;;;;;10.07;1.73;;;12.60;99.90;;;;;;5092230;28;20182;-71
2022/10/09 13:14:56;;;;;;;6.77;1.90;;;12.40;99.90;;;;;;5095652;28;20575;-71
2022/10/09 13:17:29;;;;;;;7.93;1.87;;;12.30;99.90;;;;;;5095106;28;20206;-70
2022/10/09 13:20:00;;;;;;;7.20;2.00;;;12.20;99.90;;;;;;5092326;28;20188;-72